Lapu-lapu / Mactan, Philippines

10:58 PM PHT on January 19, 2017 (GMT +0800)
Bankal, Lapu-Lapu City | | Change Station

Elev 10 ft 10.31 °N, 123.99 °E | Updated 15 minutes ago

Rain
Rain
74.8 °F
Feels Like 73 °F
N
0.0
Wind Variable Wind from South
Gusts 7.0 mph

Today
High -- | Low -- °F
--% Chance of Precip.
Yesterday
High -- | Low -- °F
Precip. -- in
Pressure 29.95 in
Visibility 5.6 miles
Clouds Scattered Clouds 2000 ft
Overcast 9000 ft
Heat Index 73 °F
Dew Point 73 °F
Humidity 95%
Rainfall 0.74 in
Snow Depth Not available.
6:06 AM 5:43 PM
Waning Gibbous, 53% visible
METAR RPVM 191400Z 34010KT 9000 -RA SCT020 OVC090 24/23 Q1014 RMK A2994
Pressure 29.95 in
Visibility 5.6 miles
Clouds Scattered Clouds 2000 ft
Overcast 9000 ft
Heat Index 73 °F
Dew Point 73 °F
Humidity 95%
Rainfall 0.74 in
Snow Depth Not available.
6:06 AM 5:43 PM
Waning Gibbous, 53% visible
METAR RPVM 191400Z 34010KT 9000 -RA SCT020 OVC090 24/23 Q1014 RMK A2994

Get Your Daily Forecast Email!

Thanks for signing up!

Be on the lookout for a verification email in your inbox.

You'll start receiving the daily forecast at 8 AM.

×

10-Day Weather Forecast

No radar image for this location.
×

Almanac

Astronomy

Jan. 19, 2017 Rise Set
Actual Time
Civil Twilight
Nautical Twilight
Astronomical Twilight
Moon
Length of Visible Light
Length of Day
Tomorrow will be .
, % of the Moon is Illuminated

Today's Extremes

Country Highs Country Lows

Community

WunderPhotos

Upload Photos

1,962,540 photos uploaded!

WunderBlog® & News

Nearby

Air Quality

  Air Quality AQ Index Pollutant
Not available.

Snow Depth

Station Depth Elevation

Earthquake Activity

City Distance Mag. Time & Date
Minimum magnitude displayed is 2.5.

Coastal Water Temperatures

Place Temperature

Stations

Nearby Weather Stations

Station Location Temp. Windchill Dew Point Humidity Wind Precip. Elev Updated Type